»·PEaware :: SWA470 KSLC-KBIL

SWA470 :: KSLC-KBIL

FLIGHT INFORMATION

Flight Status: Arrived
Operator:
Southwest Airlines
More flights by this operator :: More flights under this callsign
Pilot: Rick E. (42686)
Aircraft: BOEING 737-600
(B736)
More flights by this aircraft type
Origin: KSLC Salt Lake City Intl
United States
Destination: KBIL Billings Logan Intl
United States
More flights between these airports :: More routes between these airports
Route: RUGGD2 HOLTR JEKUG YLSTN3
File this flight plan on PilotEdge
Remarks:
Altitude:
(Current/Filed)
330ft
Speed:
(Current/Filed)
320kts
Departed: 03-Jan-23 03:31 PM
Arrived: 03-Jan-23 04:32 PM
Distance/Time
Traveled:
336nm/1:01
Distance/Time
To Go:
Arrived

Flight Plot

Page will automatically refresh every two minutes.

Flight plan parsing failed; only flown route is shown


Map Options




Map Legend


Flown Route
Filed Route
Departure Airport
Arrival Airport
Navaid (VOR, NDB)
Fix

Horizontal Profiles

Position Reports

Time Latitude Longitude Heading Altitude Ground
Speed
03-Jan-23 14:59 40.788436 -111.985464 72 4231ft 0kts
03-Jan-23 14:59 40.788436 -111.985464 72 4231ft 0kts
03-Jan-23 15:01 40.788436 -111.985464 72 4231ft 0kts
03-Jan-23 15:02 40.788436 -111.985464 72 4231ft 0kts
03-Jan-23 15:03 40.788436 -111.985464 72 4231ft 0kts
03-Jan-23 15:03 40.788436 -111.985464 72 4231ft 0kts
03-Jan-23 15:04 40.788436 -111.985464 72 4204ft 0kts
03-Jan-23 15:05 40.788436 -111.985464 72 4204ft 0kts
03-Jan-23 15:06 40.788436 -111.985464 72 4204ft 0kts
03-Jan-23 15:08 40.788436 -111.985464 72 4204ft 0kts
03-Jan-23 15:08 40.788436 -111.985464 72 4204ft 0kts
03-Jan-23 15:09 40.788436 -111.985464 72 4204ft 0kts
03-Jan-23 15:10 40.788436 -111.985464 72 4204ft 0kts
03-Jan-23 15:11 40.788436 -111.985464 72 4204ft 0kts
03-Jan-23 15:12 40.788253 -111.985903 47 4229ft 2kts
03-Jan-23 15:13 40.787813 -111.986257 352 4229ft 0kts
03-Jan-23 15:14 40.787813 -111.986257 352 4229ft 0kts
03-Jan-23 15:15 40.787813 -111.986257 352 4229ft 0kts
03-Jan-23 15:16 40.787813 -111.986257 352 4229ft 0kts
03-Jan-23 15:17 40.787813 -111.986257 352 4229ft 0kts
03-Jan-23 15:18 40.787813 -111.986257 352 4229ft 0kts
03-Jan-23 15:19 40.787813 -111.986257 352 4229ft 0kts
03-Jan-23 15:20 40.788585 -111.986521 343 4229ft 13kts
03-Jan-23 15:21 40.790664 -111.989500 354 4231ft 12kts
03-Jan-23 15:22 40.791054 -111.993073 264 4235ft 11kts
03-Jan-23 15:23 40.788660 -111.994898 175 4239ft 14kts
03-Jan-23 15:24 40.784266 -111.994378 174 4235ft 16kts
03-Jan-23 15:25 40.779976 -111.994375 184 4234ft 14kts
03-Jan-23 15:26 40.776443 -111.994026 175 4241ft 8kts
03-Jan-23 15:27 40.775424 -111.994024 210 4239ft 0kts
03-Jan-23 15:28 40.775424 -111.994024 210 4239ft 0kts
03-Jan-23 15:29 40.775548 -111.995483 342 4241ft 11kts
03-Jan-23 15:30 40.812255 -112.002054 329 6752ft 200kts
03-Jan-23 15:31 40.861927 -112.044647 326 9972ft 227kts
03-Jan-23 15:32 40.918862 -112.094714 331 9994ft 254kts
03-Jan-23 15:33 40.971208 -112.049480 56 10000ft 282kts
03-Jan-23 15:34 41.024746 -111.956008 52 12863ft 339kts
03-Jan-23 15:35 41.084977 -111.853881 51 16653ft 361kts
03-Jan-23 15:36 41.158658 -111.761835 16 20198ft 375kts
03-Jan-23 15:37 41.261559 -111.737716 9 23016ft 386kts
03-Jan-23 15:38 41.370860 -111.711937 10 24624ft 398kts
03-Jan-23 15:39 41.479535 -111.672626 17 27316ft 413kts
03-Jan-23 15:40 41.591706 -111.628219 17 29772ft 428kts
03-Jan-23 15:41 41.705027 -111.583594 17 32385ft 424kts
03-Jan-23 15:42 41.819630 -111.541658 10 33049ft 423kts
03-Jan-23 15:43 41.936153 -111.515842 10 33060ft 427kts
03-Jan-23 15:44 42.053339 -111.489349 10 33064ft 425kts
03-Jan-23 15:45 42.169213 -111.462926 10 33067ft 422kts
03-Jan-23 15:46 42.284546 -111.435664 16 33062ft 420kts
03-Jan-23 15:47 42.387336 -111.363703 32 33067ft 418kts
03-Jan-23 15:48 42.487290 -111.282475 31 33065ft 419kts
03-Jan-23 15:49 42.587087 -111.201746 31 33022ft 418kts
03-Jan-23 15:50 42.686920 -111.120724 32 32978ft 417kts
03-Jan-23 15:51 42.786811 -111.039349 32 32969ft 417kts
03-Jan-23 15:52 42.886278 -110.958014 32 32999ft 418kts
03-Jan-23 15:53 42.985639 -110.876457 32 33034ft 417kts
03-Jan-23 15:54 43.085246 -110.794341 29 33167ft 422kts
03-Jan-23 15:55 43.188636 -110.708856 29 32716ft 428kts
03-Jan-23 15:56 43.290851 -110.623981 29 29286ft 434kts
03-Jan-23 15:57 43.392469 -110.539213 29 25314ft 419kts
03-Jan-23 15:58 43.490695 -110.456979 29 23990ft 400kts
03-Jan-23 15:59 43.584861 -110.377888 29 23986ft 396kts
03-Jan-23 16:00 43.679750 -110.297888 29 24029ft 413kts
03-Jan-23 16:01 43.776724 -110.215752 29 24024ft 406kts
03-Jan-23 16:02 43.873154 -110.133822 29 24029ft 409kts
03-Jan-23 16:03 43.969934 -110.051253 29 24052ft 410kts
03-Jan-23 16:04 44.067279 -109.967876 29 24054ft 410kts
03-Jan-23 16:05 44.164148 -109.884592 29 24050ft 408kts
03-Jan-23 16:06 44.260702 -109.801249 29 24024ft 412kts
03-Jan-23 16:07 44.361627 -109.720920 22 24037ft 414kts
03-Jan-23 16:08 44.465058 -109.649764 23 24035ft 416kts
03-Jan-23 16:09 44.568456 -109.576728 24 24009ft 418kts
03-Jan-23 16:10 44.672091 -109.503095 24 23467ft 419kts
03-Jan-23 16:11 44.772757 -109.431162 24 21162ft 402kts
03-Jan-23 16:12 44.870885 -109.360853 24 19268ft 389kts
03-Jan-23 16:13 44.966691 -109.291940 25 17488ft 381kts
03-Jan-23 16:14 45.056446 -109.227072 25 15772ft 341kts
03-Jan-23 16:15 45.140809 -109.166012 25 15031ft 342kts
03-Jan-23 16:16 45.225170 -109.104428 25 14243ft 338kts
03-Jan-23 16:17 45.308001 -109.043877 25 12993ft 333kts
03-Jan-23 16:18 45.390835 -108.983082 25 11720ft 317kts
03-Jan-23 16:19 45.462565 -108.930274 24 10996ft 270kts
03-Jan-23 16:20 45.503975 -108.849093 67 10427ft 253kts
03-Jan-23 16:21 45.529495 -108.755110 66 9041ft 251kts
03-Jan-23 16:22 45.555042 -108.662608 66 8956ft 251kts
03-Jan-23 16:23 45.580672 -108.569615 66 8933ft 252kts
03-Jan-23 16:24 45.605377 -108.479657 66 7963ft 233kts
03-Jan-23 16:25 45.629865 -108.395134 48 6920ft 223kts
03-Jan-23 16:26 45.680911 -108.357485 0 6895ft 195kts
03-Jan-23 16:27 45.729742 -108.384485 330 5927ft 190kts
03-Jan-23 16:28 45.774362 -108.421007 306 5813ft 191kts
03-Jan-23 16:29 45.789910 -108.471631 289 5223ft 130kts
03-Jan-23 16:30 45.803190 -108.520494 288 3632ft 118kts
03-Jan-23 16:31 45.807902 -108.537528 291 3620ft 25kts
03-Jan-23 16:32 45.807250 -108.540733 196 3621ft 6kts
03-Jan-23 16:33 45.806697 -108.540070 111 3621ft 0kts
03-Jan-23 16:34 45.805620 -108.538590 143 3620ft 12kts
03-Jan-23 16:35 45.804273 -108.537585 179 3619ft 0kts
03-Jan-23 16:36 45.804273 -108.537585 179 3619ft 0kts
03-Jan-23 16:37 45.804273 -108.537585 179 3619ft 0kts

Navigation Log

Ident Type
Flight plan parsing failed, navigation log unavailable